Time;durP1;ratioP1;P1;durP2;ratioP2;P2;SDS_P1;SDS_P2;PMS_P1;PMS_P2;Temp;Humidity;BMP_temperature;BMP_pressure;BME280_temperature;BME280_humidity;BME280_pressure;Samples;Min_cycle;Max_cycle;Signal;HPM_P1;HPM_P2
2023/01/16 00:01:52;;;;;;;;;;;;;;;25.28;22.21;97247.59;5043096;28;19920;-93
2023/01/16 00:04:18;;;;;;;;;;;;;;;24.92;22.55;97236.19;5048829;28;19967;-92
2023/01/16 00:06:44;;;;;;;;;;;;;;;24.75;23.46;97248.84;5052144;28;19929;-93
2023/01/16 00:09:10;;;;;;;;;;;;;;;25.16;23.00;97244.88;5051318;28;19928;-94
2023/01/16 00:11:36;;;;;;;;;;;;;;;25.38;22.15;97246.38;5045829;28;19920;-95
2023/01/16 00:14:03;;;;;;;;;;;;;;;25.34;22.17;97245.72;5044701;28;20714;-94
2023/01/16 00:16:29;;;;;;;;;;;;;;;25.35;22.53;97243.72;5052677;28;19990;-95
2023/01/16 00:18:55;;;;;;;;;;;;;;;25.33;22.06;97238.56;5049602;28;19932;-95
2023/01/16 00:21:25;;;;;;;;;;;;;;;25.34;21.99;97242.91;5043397;28;20410;-94
2023/01/16 00:23:52;;;;;;;;;;;;;;;25.07;22.31;97250.44;5052874;28;19921;-94
2023/01/16 00:26:18;;;;;;;;;;;;;;;25.17;22.71;97241.63;5044185;28;21551;-94
2023/01/16 00:28:44;;;;;;;;;;;;;;;25.55;21.79;97226.47;5052018;28;20381;-94
2023/01/16 00:31:11;;;;;;;;;;;;;;;25.51;22.22;97231.47;5046886;28;19924;-93
2023/01/16 00:33:37;;;;;;;;;;;;;;;25.50;21.93;97225.06;5052413;28;19990;-93
2023/01/16 00:36:03;;;;;;;;;;;;;;;25.16;22.72;97231.59;5050137;28;19983;-93
2023/01/16 00:38:29;;;;;;;;;;;;;;;25.16;21.94;97231.59;5048266;28;20396;-93
2023/01/16 00:40:55;;;;;;;;;;;;;;;24.94;22.49;97236.50;5053502;28;19916;-93
2023/01/16 00:43:21;;;;;;;;;;;;;;;24.67;22.16;97233.50;5050977;28;19925;-92
2023/01/16 00:45:48;;;;;;;;;;;;;;;24.93;22.21;97226.50;5052773;28;19967;-93
2023/01/16 00:48:14;;;;;;;;;;;;;;;25.24;21.52;97226.50;5051746;28;19925;-93
2023/01/16 00:50:40;;;;;;;;;;;;;;;24.83;21.95;97224.91;5052467;28;19947;-93
2023/01/16 00:53:06;;;;;;;;;;;;;;;24.66;22.45;97220.72;5051969;28;19978;-93
2023/01/16 00:55:32;;;;;;;;;;;;;;;24.66;22.16;97224.31;5052309;28;19927;-92
2023/01/16 00:57:58;;;;;;;;;;;;;;;24.84;21.87;97222.88;5047134;28;20035;-92
2023/01/16 01:00:25;;;;;;;;;;;;;;;24.95;21.66;97226.06;5049370;28;19967;-93
2023/01/16 01:02:51;;;;;;;;;;;;;;;25.13;20.87;97226.94;5048628;28;19940;-93
2023/01/16 01:05:17;;;;;;;;;;;;;;;25.17;20.87;97223.97;5046312;28;19932;-92
2023/01/16 01:07:43;;;;;;;;;;;;;;;25.18;21.24;97226.31;5049564;28;19917;-93
2023/01/16 01:10:09;;;;;;;;;;;;;;;25.00;20.95;97228.25;5052057;28;19966;-93
2023/01/16 01:12:35;;;;;;;;;;;;;;;25.03;20.95;97241.38;5048128;28;19928;-93
2023/01/16 01:15:02;;;;;;;;;;;;;;;24.65;20.90;97233.19;5050974;28;19932;-93
2023/01/16 01:17:28;;;;;;;;;;;;;;;24.09;21.98;97226.84;5048919;28;20305;-93
2023/01/16 01:19:54;;;;;;;;;;;;;;;24.08;22.21;97222.47;5047146;28;19932;-93
2023/01/16 01:22:20;;;;;;;;;;;;;;;24.51;21.57;97222.47;5049701;28;19924;-92
2023/01/16 01:24:49;;;;;;;;;;;;;;;24.66;20.83;97224.31;5049564;28;19927;-93
2023/01/16 01:27:16;;;;;;;;;;;;;;;24.62;20.97;97223.66;5049833;28;19920;-93
2023/01/16 01:29:42;;;;;;;;;;;;;;;24.63;21.58;97221.63;5048993;28;19921;-93
2023/01/16 01:32:09;;;;;;;;;;;;;;;24.60;20.53;97220.53;5047799;28;20006;-94
2023/01/16 01:34:36;;;;;;;;;;;;;;;24.35;21.17;97217.06;5050955;28;20012;-92
2023/01/16 01:37:03;;;;;;;;;;;;;;;24.42;20.87;97205.59;5049216;28;19929;-93
2023/01/16 01:39:29;;;;;;;;;;;;;;;24.47;21.11;97202.97;5053885;28;19975;-92
2023/01/16 01:42:41;;;;;;;;;;;;;;;23.77;21.37;97205.50;5054297;28;19920;-92
2023/01/16 01:45:00;;;;;;;;;;;;;;;22.44;23.13;97208.50;5044355;28;19925;-93
2023/01/16 01:47:30;;;;;;;;;;;;;;;22.75;23.04;97208.81;5052576;28;19956;-93
2023/01/16 01:49:59;;;;;;;;;;;;;;;23.35;21.99;97210.53;5053060;28;20291;-93
2023/01/16 01:52:26;;;;;;;;;;;;;;;23.64;21.38;97204.75;5047888;28;19924;-93
2023/01/16 01:54:55;;;;;;;;;;;;;;;23.90;21.79;97200.63;5046326;28;20011;-93
2023/01/16 01:57:47;;;;;;;;;;;;;;;24.13;21.22;97199.47;5051300;28;19920;-93
2023/01/16 02:00:17;;;;;;;;;;;;;;;24.33;21.22;97200.69;5053041;28;19921;-93
2023/01/16 02:02:48;;;;;;;;;;;;;;;24.43;20.48;97193.94;5049406;28;19925;-93
2023/01/16 02:05:19;;;;;;;;;;;;;;;24.45;19.86;97185.81;5065863;28;20420;-93
2023/01/16 02:07:45;;;;;;;;;;;;;;;23.63;20.69;97186.38;5042593;28;19939;-93
2023/01/16 02:10:18;;;;;;;;;;;;;;;23.17;21.58;97193.50;5062339;28;19922;-93
2023/01/16 02:12:44;;;;;;;;;;;;;;;23.45;22.21;97186.97;5070099;28;20011;-93
2023/01/16 02:15:10;;;;;;;;;;;;;;;23.74;21.38;97178.38;5052239;28;20125;-92
2023/01/16 02:20:26;;;;;;;;;;;;;;;24.12;21.54;97167.03;5052326;28;19944;-92
2023/01/16 02:23:01;;;;;;;;;;;;;;;24.09;20.94;97167.94;5049600;28;19921;-92
2023/01/16 02:26:00;;;;;;;;;;;;;;;23.74;21.17;97162.34;5038676;28;19928;-92
2023/01/16 02:28:58;;;;;;;;;;;;;;;23.72;21.25;97158.44;5049762;28;19979;-92
2023/01/16 02:31:27;;;;;;;;;;;;;;;23.76;21.77;97159.06;5025075;28;19924;-92
2023/01/16 02:34:11;;;;;;;;;;;;;;;24.03;20.79;97162.91;5049628;28;19920;-92
2023/01/16 02:36:43;;;;;;;;;;;;;;;24.02;21.12;97143.72;5042907;28;19967;-92
2023/01/16 02:39:23;;;;;;;;;;;;;;;22.44;22.46;97135.78;5054323;28;19927;-93
2023/01/16 02:41:50;;;;;;;;;;;;;;;22.48;22.27;97142.03;5051144;28;19947;-93
2023/01/16 02:44:36;;;;;;;;;;;;;;;23.02;22.28;97147.56;5052623;28;19925;-93
2023/01/16 02:47:22;;;;;;;;;;;;;;;23.30;21.43;97153.03;5055448;28;19975;-92
2023/01/16 02:50:08;;;;;;;;;;;;;;;22.12;23.16;97147.91;5042052;28;19925;-92
2023/01/16 02:52:40;;;;;;;;;;;;;;;22.08;23.39;97150.00;5049749;28;20380;-92
2023/01/16 02:55:06;;;;;;;;;;;;;;;22.20;23.35;97140.09;5051195;28;20312;-92
2023/01/16 02:57:38;;;;;;;;;;;;;;;22.48;23.16;97142.81;5047033;28;19921;-92
2023/01/16 03:00:05;;;;;;;;;;;;;;;22.79;22.79;97142.31;5049815;28;19917;-92
2023/01/16 03:02:32;;;;;;;;;;;;;;;23.26;22.05;97148.78;5047663;28;19948;-91
2023/01/16 03:04:58;;;;;;;;;;;;;;;22.96;22.50;97149.38;5050773;28;20380;-91
2023/01/16 03:07:42;;;;;;;;;;;;;;;23.00;22.81;97142.44;5049425;28;19928;-91
2023/01/16 03:10:14;;;;;;;;;;;;;;;23.38;22.26;97142.41;5048251;28;19921;-92
2023/01/16 03:12:58;;;;;;;;;;;;;;;23.09;22.08;97139.72;5046445;28;19970;-91
2023/01/16 03:15:30;;;;;;;;;;;;;;;23.52;21.32;97136.31;5045492;28;19929;-91
2023/01/16 03:18:02;;;;;;;;;;;;;;;23.33;21.79;97140.13;5041924;28;19921;-91
2023/01/16 03:20:46;;;;;;;;;;;;;;;23.23;21.79;97132.88;5050069;28;19917;-91
2023/01/16 03:23:15;;;;;;;;;;;;;;;22.83;22.29;97124.19;5049807;28;20293;-91
2023/01/16 03:25:45;;;;;;;;;;;;;;;22.40;22.87;97119.13;5052220;28;19916;-91
2023/01/16 03:28:11;;;;;;;;;;;;;;;22.43;22.90;97120.22;5053552;28;20292;-91
2023/01/16 03:31:07;;;;;;;;;;;;;;;22.52;22.53;97125.94;5050634;28;19963;-92
2023/01/16 03:33:42;;;;;;;;;;;;;;;21.90;23.45;97127.38;5033878;28;19929;-91
2023/01/16 03:36:21;;;;;;;;;;;;;;;22.46;22.80;97122.91;5049631;28;20289;-91
2023/01/16 03:38:48;;;;;;;;;;;;;;;22.07;23.31;97114.13;5050083;28;19925;-91
2023/01/16 03:41:16;;;;;;;;;;;;;;;22.08;23.28;97124.84;5049257;28;19929;-91
2023/01/16 03:43:44;;;;;;;;;;;;;;;22.43;23.01;97126.59;5046102;28;19979;-90
2023/01/16 03:46:23;;;;;;;;;;;;;;;23.03;22.22;97126.75;5043615;28;20020;-91
2023/01/16 03:49:05;;;;;;;;;;;;;;;23.19;21.62;97130.19;5050983;28;19925;-91
2023/01/16 03:51:33;;;;;;;;;;;;;;;22.66;22.58;97126.31;5048848;28;20431;-91
2023/01/16 03:54:20;;;;;;;;;;;;;;;22.22;22.88;97124.44;5046902;28;20011;-91
2023/01/16 03:56:50;;;;;;;;;;;;;;;22.46;22.57;97125.72;5045475;28;19925;-90
2023/01/16 03:59:16;;;;;;;;;;;;;;;22.91;22.44;97122.72;5044263;28;19920;-90
2023/01/16 04:01:49;;;;;;;;;;;;;;;23.26;21.92;97118.75;5043892;28;19936;-90
2023/01/16 04:04:20;;;;;;;;;;;;;;;23.41;21.84;97113.47;5044338;28;19928;-91
2023/01/16 04:06:46;;;;;;;;;;;;;;;23.59;21.74;97115.66;5048243;28;19959;-90
2023/01/16 04:09:20;;;;;;;;;;;;;;;23.74;21.33;97100.69;5048347;28;19921;-90
2023/01/16 04:11:48;;;;;;;;;;;;;;;23.74;21.13;97095.06;5048761;28;20015;-90
2023/01/16 04:14:15;;;;;;;;;;;;;;;23.60;21.48;97101.19;5041726;28;20027;-90
2023/01/16 04:16:42;;;;;;;;;;;;;;;23.86;21.18;97099.84;5047779;28;19932;-91
2023/01/16 04:19:11;;;;;;;;;;;;;;;24.17;21.08;97085.91;5048435;28;19975;-90
2023/01/16 04:21:37;;;;;;;;;;;;;;;22.99;21.91;97089.66;5052376;28;19943;-91
2023/01/16 04:24:04;;;;;;;;;;;;;;;21.99;23.26;97083.59;5049203;28;19925;-91
2023/01/16 04:26:30;;;;;;;;;;;;;;;22.32;23.08;97078.59;5045158;28;20495;-91
2023/01/16 04:28:56;;;;;;;;;;;;;;;22.97;22.47;97086.53;5040921;28;19948;-91
2023/01/16 04:31:23;;;;;;;;;;;;;;;23.38;22.29;97091.19;5041557;28;20034;-92
2023/01/16 04:33:49;;;;;;;;;;;;;;;23.67;22.36;97089.72;5044430;28;19920;-92
2023/01/16 04:36:16;;;;;;;;;;;;;;;23.80;21.80;97086.88;5046672;28;20292;-92
2023/01/16 04:38:42;;;;;;;;;;;;;;;24.00;21.96;97079.69;5046621;28;19921;-93
2023/01/16 04:41:08;;;;;;;;;;;;;;;24.21;21.93;97071.72;5046611;28;20011;-92
2023/01/16 04:43:34;;;;;;;;;;;;;;;23.49;22.04;97075.56;5042544;28;20066;-91
2023/01/16 04:46:00;;;;;;;;;;;;;;;22.93;22.17;97078.28;5049144;28;20384;-90
2023/01/16 04:48:27;;;;;;;;;;;;;;;23.07;22.41;97083.41;5045960;28;19917;-90
2023/01/16 04:50:53;;;;;;;;;;;;;;;23.52;22.29;97076.69;5049152;28;19943;-90
2023/01/16 04:53:19;;;;;;;;;;;;;;;24.03;21.68;97075.19;5041326;28;20476;-91
2023/01/16 04:55:45;;;;;;;;;;;;;;;24.17;21.11;97074.69;5046906;28;19925;-91
2023/01/16 04:58:11;;;;;;;;;;;;;;;24.39;21.21;97066.19;5047789;28;19927;-91
2023/01/16 05:00:37;;;;;;;;;;;;;;;24.57;20.78;97058.69;5044353;28;19951;-91
2023/01/16 05:03:03;;;;;;;;;;;;;;;24.78;20.69;97057.06;5047353;28;19920;-91
2023/01/16 05:05:29;;;;;;;;;;;;;;;24.96;20.94;97057.09;5042514;28;19951;-91
2023/01/16 05:10:39;;;;;;;;;;;;;;;25.18;20.60;97057.00;5050239;28;19943;-92
2023/01/16 05:13:05;;;;;;;;;;;;;;;25.16;20.49;97049.00;5046949;28;20110;-92
2023/01/16 05:15:32;;;;;;;;;;;;;;;25.22;20.36;97052.00;5050269;28;19929;-93
2023/01/16 05:17:58;;;;;;;;;;;;;;;25.27;20.22;97040.94;5046105;28;19927;-93
2023/01/16 05:20:24;;;;;;;;;;;;;;;25.29;19.98;97040.44;5053782;28;20002;-91
2023/01/16 05:22:50;;;;;;;;;;;;;;;25.02;20.59;97032.75;5053825;28;19947;-92
2023/01/16 05:25:16;;;;;;;;;;;;;;;24.80;20.76;97026.50;5056621;28;19924;-93
2023/01/16 05:27:42;;;;;;;;;;;;;;;24.85;20.40;97028.69;5066618;28;19921;-90
2023/01/16 05:30:08;;;;;;;;;;;;;;;24.69;20.49;97026.88;5057573;28;19928;-89
2023/01/16 05:32:34;;;;;;;;;;;;;;;24.25;20.50;97036.69;5053527;28;19928;-89
2023/01/16 05:35:01;;;;;;;;;;;;;;;23.75;20.93;97034.19;5052114;28;20058;-90
2023/01/16 05:37:28;;;;;;;;;;;;;;;23.30;21.47;97031.78;5047840;28;20392;-90
2023/01/16 05:39:56;;;;;;;;;;;;;;;23.23;22.28;97041.22;5046517;28;19923;-91
2023/01/16 05:42:24;;;;;;;;;;;;;;;23.75;21.81;97028.59;5052625;28;19920;-94
2023/01/16 05:44:51;;;;;;;;;;;;;;;24.10;21.07;97029.28;5049609;28;19925;-92
2023/01/16 05:47:20;;;;;;;;;;;;;;;23.67;21.58;97030.88;5054121;28;19921;-92
2023/01/16 05:49:47;;;;;;;;;;;;;;;23.42;21.77;97027.41;5051482;28;20008;-93
2023/01/16 05:52:13;;;;;;;;;;;;;;;23.10;22.08;97014.50;5048465;28;19928;-91
2023/01/16 05:54:39;;;;;;;;;;;;;;;23.14;22.55;97020.75;5048506;28;19982;-93
2023/01/16 05:57:05;;;;;;;;;;;;;;;23.24;22.28;97011.22;5052338;28;19924;-91
2023/01/16 05:59:31;;;;;;;;;;;;;;;22.11;23.57;97006.56;5054053;28;19921;-87
2023/01/16 06:01:57;;;;;;;;;;;;;;;21.58;24.24;97001.75;5047743;28;20023;-92
2023/01/16 06:04:24;;;;;;;;;;;;;;;22.37;23.79;97005.34;5049916;28;20011;-93
2023/01/16 06:06:50;;;;;;;;;;;;;;;22.65;23.23;96995.25;5051144;28;19946;-89
2023/01/16 06:09:16;;;;;;;;;;;;;;;22.95;22.78;97003.03;5055716;28;19923;-89
2023/01/16 06:11:42;;;;;;;;;;;;;;;22.81;22.82;96995.09;5056271;28;19956;-89
2023/01/16 06:14:08;;;;;;;;;;;;;;;22.12;23.77;96996.16;5055337;28;19933;-90
2023/01/16 06:16:34;;;;;;;;;;;;;;;22.65;23.24;96990.44;5056073;28;20290;-89
2023/01/16 06:19:00;;;;;;;;;;;;;;;23.33;22.78;96988.88;5045580;28;19924;-89
2023/01/16 06:21:27;;;;;;;;;;;;;;;23.96;22.05;96986.53;5062937;28;19917;-89
2023/01/16 06:23:53;;;;;;;;;;;;;;;24.38;21.20;96983.28;5067968;28;19939;-89
2023/01/16 06:26:19;;;;;;;;;;;;;;;23.96;21.19;96975.31;5056264;28;19956;-90
2023/01/16 06:28:45;;;;;;;;;;;;;;;23.43;21.77;96982.16;5054749;28;19928;-90
2023/01/16 06:31:12;;;;;;;;;;;;;;;23.45;22.09;96981.69;5056035;28;19962;-90
2023/01/16 06:33:38;;;;;;;;;;;;;;;23.96;21.87;96985.75;5056167;28;20372;-89
2023/01/16 06:36:04;;;;;;;;;;;;;;;24.38;21.43;96984.09;5055534;28;20423;-89
2023/01/16 06:38:30;;;;;;;;;;;;;;;24.42;21.10;96981.13;5055744;28;20411;-89
2023/01/16 06:40:56;;;;;;;;;;;;;;;24.38;21.19;96981.28;5055094;28;19924;-89
2023/01/16 06:43:25;;;;;;;;;;;;;;;23.42;21.81;96976.97;5070657;28;19921;-89
2023/01/16 06:45:52;;;;;;;;;;;;;;;22.50;22.92;96982.94;5055940;28;19921;-89
2023/01/16 06:48:18;;;;;;;;;;;;;;;22.60;23.04;96984.59;5055371;28;19917;-90
2023/01/16 06:50:44;;;;;;;;;;;;;;;22.94;22.71;96981.84;5055680;28;19936;-89
2023/01/16 06:53:11;;;;;;;;;;;;;;;23.21;22.74;96982.09;5055784;28;19923;-89
2023/01/16 06:55:38;;;;;;;;;;;;;;;23.72;22.52;96977.03;5055649;28;19963;-89
2023/01/16 06:58:04;;;;;;;;;;;;;;;24.08;21.64;96975.69;5054935;28;20007;-90
2023/01/16 07:00:30;;;;;;;;;;;;;;;24.39;21.35;96968.00;5055591;28;19970;-90
2023/01/16 07:02:57;;;;;;;;;;;;;;;24.61;21.20;96960.28;5063990;28;19916;-89
2023/01/16 07:05:24;;;;;;;;;;;;;;;24.56;21.34;96963.69;5062401;28;20007;-90
2023/01/16 07:07:50;;;;;;;;;;;;;;;24.65;21.14;96969.34;5054939;28;20028;-89
2023/01/16 07:10:17;;;;;;;;;;;;;;;24.74;20.81;96963.72;5054938;28;19924;-89
2023/01/16 07:12:43;;;;;;;;;;;;;;;24.92;20.98;96955.38;5055243;28;19943;-89
2023/01/16 07:23:25;;;;;;;;;;;;;;;25.08;20.96;96963.50;5054697;28;19923;-90
2023/01/16 07:25:53;;;;;;;;;;;;;;;25.25;20.86;96963.97;5053810;28;20246;-90
2023/01/16 07:28:19;;;;;;;;;;;;;;;24.67;20.54;96950.78;5035691;28;20419;-90
2023/01/16 07:30:46;;;;;;;;;;;;;;;24.13;21.49;96961.06;5035121;28;19917;-90
2023/01/16 07:33:12;;;;;;;;;;;;;;;23.89;21.91;96963.59;5045686;28;19916;-90
2023/01/16 07:35:38;;;;;;;;;;;;;;;24.22;21.71;96956.28;5053973;28;19916;-89
2023/01/16 07:38:04;;;;;;;;;;;;;;;24.66;21.09;96948.44;5053469;28;19924;-90
2023/01/16 07:40:30;;;;;;;;;;;;;;;24.38;21.04;96953.22;5053847;28;19912;-89
2023/01/16 07:42:57;;;;;;;;;;;;;;;24.65;21.34;96952.50;5054646;28;19923;-90
2023/01/16 07:45:23;;;;;;;;;;;;;;;25.00;20.88;96955.84;5055164;28;19920;-90
2023/01/16 07:47:49;;;;;;;;;;;;;;;25.24;20.32;96953.97;5054539;28;19913;-90
2023/01/16 07:50:15;;;;;;;;;;;;;;;25.24;20.59;96953.97;5054317;28;19921;-90
2023/01/16 07:52:45;;;;;;;;;;;;;;;25.15;20.31;96946.34;5054385;28;19919;-90
2023/01/16 07:55:12;;;;;;;;;;;;;;;25.25;20.83;96950.69;5054533;28;19963;-89
2023/01/16 07:57:39;;;;;;;;;;;;;;;25.39;20.82;96952.09;5054206;28;19948;-90
2023/01/16 08:00:07;;;;;;;;;;;;;;;25.25;20.54;96941.50;5054483;28;20335;-90
2023/01/16 08:02:33;;;;;;;;;;;;;;;25.07;21.09;96941.47;5054428;28;19917;-90
2023/01/16 08:04:59;;;;;;;;;;;;;;;24.70;21.34;96935.03;5054127;28;20464;-90
2023/01/16 08:07:25;;;;;;;;;;;;;;;24.77;20.96;96931.97;5053776;28;19936;-89
2023/01/16 08:09:51;;;;;;;;;;;;;;;24.72;21.69;96927.72;5054109;28;19938;-90
2023/01/16 08:12:17;;;;;;;;;;;;;;;24.50;21.63;96924.25;5054592;28;20046;-90
2023/01/16 08:14:43;;;;;;;;;;;;;;;24.43;21.86;96913.34;5053690;28;20551;-90
2023/01/16 08:17:09;;;;;;;;;;;;;;;24.60;21.73;96914.59;5034250;28;19917;-89
2023/01/16 08:19:35;;;;;;;;;;;;;;;24.81;21.36;96917.78;5047301;28;20303;-90
2023/01/16 08:22:02;;;;;;;;;;;;;;;25.07;21.42;96900.13;5073770;28;19924;-90
2023/01/16 08:24:28;;;;;;;;;;;;;;;25.17;20.78;96893.28;5057894;28;19921;-90
2023/01/16 08:26:55;;;;;;;;;;;;;;;25.24;20.95;96889.34;5054919;28;19962;-90
2023/01/16 08:29:21;;;;;;;;;;;;;;;24.75;21.57;96895.13;5053776;28;19920;-90
2023/01/16 08:31:47;;;;;;;;;;;;;;;24.88;21.68;96886.59;5053592;28;19924;-90
2023/01/16 08:34:13;;;;;;;;;;;;;;;24.80;21.05;96886.13;5053795;28;19917;-90
2023/01/16 08:36:39;;;;;;;;;;;;;;;24.34;22.04;96888.03;5054799;28;19917;-90
2023/01/16 08:39:06;;;;;;;;;;;;;;;24.25;21.75;96881.66;5055885;28;19925;-90
2023/01/16 08:52:37;;;;;;;;;;;;;;;23.75;22.79;96852.03;5057402;28;19963;-90
2023/01/16 08:55:03;;;;;;;;;;;;;;;23.41;23.18;96854.97;5051907;28;19917;-90
2023/01/16 08:57:29;;;;;;;;;;;;;;;;;;5042779;28;20449;-90
2023/01/16 08:59:56;;;;;;;;;;;;;;;23.99;22.68;96844.63;5057851;28;19936;-90
2023/01/16 09:02:23;;;;;;;;;;;;;;;24.19;22.53;96847.03;5069690;28;19917;-90
2023/01/16 09:04:49;;;;;;;;;;;;;;;24.42;22.90;96836.00;5060875;28;19952;-90
2023/01/16 09:07:16;;;;;;;;;;;;;;;24.79;22.09;96842.44;5056938;28;20427;-90
2023/01/16 09:09:42;;;;;;;;;;;;;;;24.46;22.37;96833.03;5057485;28;20011;-91
2023/01/16 09:14:56;;;;;;;;;;;;;;;24.31;22.86;96815.25;5056944;28;20029;-90
2023/01/16 09:17:23;;;;;;;;;;;;;;;24.76;22.54;96809.69;5057335;28;19917;-90
2023/01/16 09:19:49;;;;;;;;;;;;;;;24.16;23.21;96805.88;5057650;28;19917;-90
2023/01/16 09:22:15;;;;;;;;;;;;;;;23.70;23.83;96794.56;5056841;28;19921;-90
2023/01/16 09:24:41;;;;;;;;;;;;;;;23.59;23.84;96801.81;5057263;28;20396;-90
2023/01/16 09:27:07;;;;;;;;;;;;;;;24.20;23.09;96790.47;5056932;28;19939;-90
2023/01/16 09:29:33;;;;;;;;;;;;;;;24.08;22.96;96785.00;5057187;28;20365;-90
2023/01/16 09:32:01;;;;;;;;;;;;;;;24.42;22.88;96779.09;5057254;28;20339;-90
2023/01/16 09:34:27;;;;;;;;;;;;;;;24.78;22.19;96779.13;5057068;28;19986;-90
2023/01/16 09:36:53;;;;;;;;;;;;;;;25.11;22.73;96768.75;5073288;28;19916;-90
2023/01/16 09:39:19;;;;;;;;;;;;;;;25.00;22.39;96757.22;5072167;28;19924;-90
2023/01/16 09:44:46;;;;;;;;;;;;;;;24.48;23.44;96741.53;5057163;28;19932;-90
2023/01/16 09:47:13;;;;;;;;;;;;;;;24.29;23.25;96730.81;5056922;28;20284;-89
2023/01/16 09:49:47;;;;;;;;;;;;;;;24.03;23.34;96728.28;5056688;28;19924;-90
2023/01/16 10:00:34;;;;;;;;;;;;;;;24.51;23.36;96689.31;5056143;28;19919;-90
2023/01/16 10:03:01;;;;;;;;;;;;;;;24.52;23.08;96683.25;5054962;28;20291;-90
2023/01/16 10:05:31;;;;;;;;;;;;;;;24.28;23.99;96671.13;5041067;28;20424;-89
2023/01/16 10:08:35;;;;;;;;;;;;;;;24.43;23.78;96677.66;5056695;28;19913;-90
2023/01/16 10:11:09;;;;;;;;;;;;;;;24.54;23.56;96661.09;5034427;28;19916;-90
2023/01/16 10:14:01;;;;;;;;;;;;;;;25.09;23.21;96660.94;5034291;28;19975;-89
2023/01/16 10:16:36;;;;;;;;;;;;;;;24.36;23.95;96658.34;5048458;28;19921;-90
2023/01/16 10:19:02;;;;;;;;;;;;;;;24.18;24.47;96654.78;5055809;28;19923;-90
2023/01/16 10:21:31;;;;;;;;;;;;;;;23.05;26.42;96648.34;5056355;28;19912;-90
2023/01/16 10:24:02;;;;;;;;;;;;;;;24.59;24.31;96642.84;5051849;28;19945;-90
2023/01/16 10:26:29;;;;;;;;;;;;;;;24.58;24.02;96636.44;5042266;28;19912;-90
2023/01/16 10:29:13;;;;;;;;;;;;;;;24.63;24.21;96624.59;5055692;28;19921;-90
2023/01/16 10:31:42;;;;;;;;;;;;;;;25.10;24.24;96620.38;5055764;28;20348;-90
2023/01/16 10:34:20;;;;;;;;;;;;;;;24.59;24.19;96612.75;5055375;28;20358;-90
2023/01/16 10:36:48;;;;;;;;;;;;;;;24.32;24.69;96606.44;5055802;28;20280;-89
2023/01/16 10:39:16;;;;;;;;;;;;;;;25.12;24.01;96598.19;5054682;28;19921;-90
2023/01/16 10:50:26;;;;;;;;;;;;;;;24.24;25.21;96574.34;5034887;28;19924;-89
2023/01/16 10:52:52;;;;;;;;;;;;;;;23.41;26.32;96561.63;5035758;28;19928;-89
2023/01/16 10:55:19;;;;;;;;;;;;;;;24.71;24.40;96557.69;5053496;28;20030;-89
2023/01/16 10:57:55;;;;;;;;;;;;;;;24.69;24.09;96554.56;5055280;28;19921;-89
2023/01/16 11:00:29;;;;;;;;;;;;;;;25.62;23.58;96540.28;5056090;28;19917;-89
2023/01/16 11:03:00;;;;;;;;;;;;;;;24.29;25.08;96546.47;5052633;28;20400;-90
2023/01/16 11:05:26;;;;;;;;;;;;;;;22.42;27.13;96534.13;5055161;28;20381;-90
2023/01/16 11:07:53;;;;;;;;;;;;;;;22.23;27.34;96536.06;5070432;28;20348;-90
2023/01/16 11:10:20;;;;;;;;;;;;;;;23.32;25.64;96523.16;5070619;28;20014;-90
2023/01/16 11:18:29;;;;;;;;;;;;;;;25.60;23.18;96520.31;5059269;28;19927;-90
2023/01/16 11:21:13;;;;;;;;;;;;;;;25.85;22.51;96516.94;5048054;28;20297;-91
2023/01/16 11:23:41;;;;;;;;;;;;;;;25.01;23.65;96514.50;5048192;28;19917;-91
2023/01/16 11:26:09;;;;;;;;;;;;;;;24.67;24.35;96510.13;5055055;28;19964;-90
2023/01/16 11:28:35;;;;;;;;;;;;;;;25.31;23.97;96495.69;5054971;28;19927;-90
2023/01/16 11:31:34;;;;;;;;;;;;;;;25.56;23.49;96491.59;5054518;28;20293;-90
2023/01/16 11:34:04;;;;;;;;;;;;;;;25.26;23.20;96497.13;5042888;28;19970;-89
2023/01/16 11:36:32;;;;;;;;;;;;;;;26.16;23.10;96483.53;5054514;28;19923;-90
2023/01/16 11:38:58;;;;;;;;;;;;;;;26.39;22.20;96482.63;5054548;28;19916;-90
2023/01/16 11:41:45;;;;;;;;;;;;;;;25.27;23.77;96469.81;5054678;28;19916;-89
2023/01/16 11:46:59;;;;;;;;;;;;;;;24.31;25.07;96476.63;5054388;28;20019;-89
2023/01/16 11:49:27;;;;;;;;;;;;;;;24.28;24.66;96462.78;5054875;28;20357;-89
2023/01/16 11:51:54;;;;;;;;;;;;;;;23.91;25.88;96460.09;5060379;28;19917;-89
2023/01/16 11:54:31;;;;;;;;;;;;;;;24.69;24.39;96445.13;5045833;28;19916;-91
2023/01/16 11:57:02;;;;;;;;;;;;;;;24.24;24.74;96450.94;5054587;28;19924;-90
2023/01/16 11:59:46;;;;;;;;;;;;;;;23.61;25.51;96443.50;5054441;28;19916;-90
2023/01/16 12:02:28;;;;;;;;;;;;;;;23.65;25.84;96430.09;5051226;28;20336;-90
2023/01/16 12:08:03;;;;;;;;;;;;;;;22.15;27.23;96414.59;5051441;28;20296;-90
2023/01/16 12:10:45;;;;;;;;;;;;;;;22.48;26.81;96412.03;5053771;28;19923;-89
2023/01/16 12:15:59;;;;;;;;;;;;;;;23.16;26.35;96394.69;5054000;28;19924;-90
2023/01/16 12:18:28;;;;;;;;;;;;;;;22.99;26.30;96389.84;5053877;28;19921;-90
2023/01/16 12:21:02;;;;;;;;;;;;;;;22.79;27.30;96383.97;5054004;28;19960;-90
2023/01/16 12:23:28;;;;;;;;;;;;;;;23.46;25.71;96386.56;5053715;28;20013;-90
2023/01/16 12:25:54;;;;;;;;;;;;;;;23.79;25.51;96379.78;5054578;28;19916;-90
2023/01/16 12:28:32;;;;;;;;;;;;;;;23.58;25.37;96372.38;5053623;28;20011;-90
2023/01/16 12:31:29;;;;;;;;;;;;;;;23.94;25.85;96368.66;5053790;28;20010;-90
2023/01/16 12:34:06;;;;;;;;;;;;;;;22.78;26.76;96354.44;5053382;28;20006;-90
2023/01/16 12:36:41;;;;;;;;;;;;;;;22.69;27.22;96350.38;5054018;28;19919;-90
2023/01/16 12:39:15;;;;;;;;;;;;;;;23.52;25.61;96351.84;5052804;28;19924;-90
2023/01/16 12:44:26;;;;;;;;;;;;;;;23.24;26.20;96355.94;5037542;28;19932;-90
2023/01/16 12:46:58;;;;;;;;;;;;;;;21.31;28.97;96349.63;5053815;28;19917;-90
2023/01/16 12:49:42;;;;;;;;;;;;;;;20.97;29.53;96348.94;5053727;28;19948;-90
2023/01/16 12:52:28;;;;;;;;;;;;;;;22.26;27.47;96335.88;5040338;28;19917;-90
2023/01/16 12:55:12;;;;;;;;;;;;;;;21.77;28.23;96339.47;5034052;28;19917;-90
2023/01/16 12:57:44;;;;;;;;;;;;;;;23.13;25.94;96334.03;5033668;28;20407;-89
2023/01/16 13:00:16;;;;;;;;;;;;;;;23.12;26.17;96335.28;5045549;28;19913;-90
2023/01/16 13:02:58;;;;;;;;;;;;;;;22.61;27.10;96329.56;5052810;28;19962;-90
2023/01/16 13:05:26;;;;;;;;;;;;;;;20.27;30.36;96329.94;5053517;28;19967;-90
2023/01/16 13:08:08;;;;;;;;;;;;;;;21.02;29.06;96326.03;5053442;28;19917;-90
2023/01/16 13:13:27;;;;;;;;;;;;;;;21.42;28.97;96304.56;5053318;28;19931;-90
2023/01/16 13:15:57;;;;;;;;;;;;;;;22.19;28.22;96302.63;5053236;28;19920;-90
2023/01/16 13:18:23;;;;;;;;;;;;;;;22.97;26.60;96300.78;5045371;28;19917;-90
2023/01/16 13:20:52;;;;;;;;;;;;;;;22.36;27.79;96290.69;5053440;28;19924;-90
2023/01/16 13:23:30;;;;;;;;;;;;;;;22.30;27.84;96291.78;5053391;28;19921;-90
2023/01/16 13:26:02;;;;;;;;;;;;;;;20.91;29.56;96286.59;5053227;28;20380;-90
2023/01/16 13:28:28;;;;;;;;;;;;;;;19.92;31.41;96292.88;5053198;28;19917;-90
2023/01/16 13:30:55;;;;;;;;;;;;;;;19.32;33.35;96286.47;5053138;28;19924;-90
2023/01/16 13:33:24;;;;;;;;;;;;;;;18.25;35.52;96290.00;5057009;28;20300;-90
2023/01/16 13:36:09;;;;;;;;;;;;;;;17.41;37.21;96276.28;5068867;28;19916;-90
2023/01/16 13:38:55;;;;;;;;;;;;;;;18.71;34.00;96277.63;5056996;28;19921;-90
2023/01/16 13:41:30;;;;;;;;;;;;;;;20.60;30.75;96247.50;5057267;28;19917;-90
2023/01/16 13:46:48;;;;;;;;;;;;;;;23.71;25.74;96229.28;5056694;28;19924;-90
2023/01/16 13:49:20;;;;;;;;;;;;;;;24.68;24.42;96233.06;5057065;28;20003;-89
2023/01/16 13:51:46;;;;;;;;;;;;;;;23.36;25.99;96234.59;5052691;28;19924;-90
2023/01/16 13:54:26;;;;;;;;;;;;;;;21.37;29.03;96231.81;5056279;28;19924;-90
2023/01/16 13:57:15;;;;;;;;;;;;;;;22.10;27.42;96230.72;5057703;28;19917;-90
2023/01/16 13:59:49;;;;;;;;;;;;;;;21.61;28.44;96213.25;5053196;28;19921;-90
2023/01/16 14:02:26;;;;;;;;;;;;;;;22.40;27.64;96207.44;5045006;28;20444;-90
2023/01/16 14:05:04;;;;;;;;;;;;;;;19.14;31.40;96211.13;5036898;28;19921;-90
2023/01/16 14:10:41;;;;;;;;;;;;;;;21.94;27.00;96201.06;5056080;28;20422;-90
2023/01/16 14:13:21;;;;;;;;;;;;;;;23.04;25.34;96198.91;5055980;28;19925;-90
2023/01/16 14:18:56;;;;;;;;;;;;;;;24.64;22.89;96187.59;5056337;28;19923;-90